sensor_id;sensor_type;location;lat;lon;timestamp;pressure;altitude;pressure_sealevel;temperature;humidity
51496;BME280;37572;52.094;4.870;2023-05-25T00:01:35;102674.34;;;15.05;55.79
51496;BME280;37572;52.094;4.870;2023-05-25T00:04:01;102674.34;;;15.05;55.84
51496;BME280;37572;52.094;4.870;2023-05-25T00:06:28;102675.38;;;15.04;55.77
51496;BME280;37572;52.094;4.870;2023-05-25T00:08:54;102678.31;;;15.01;56.23
51496;BME280;37572;52.094;4.870;2023-05-25T00:11:24;102685.53;;;15.01;56.09
51496;BME280;37572;52.094;4.870;2023-05-25T00:13:51;102687.34;;;15.00;55.91
51496;BME280;37572;52.094;4.870;2023-05-25T00:16:16;102684.66;;;15.00;56.01
51496;BME280;37572;52.094;4.870;2023-05-25T00:18:41;102691.03;;;14.99;55.99
51496;BME280;37572;52.094;4.870;2023-05-25T00:21:07;102688.63;;;14.96;56.18
51496;BME280;37572;52.094;4.870;2023-05-25T00:23:33;102684.38;;;14.93;56.31
51496;BME280;37572;52.094;4.870;2023-05-25T00:25:58;102686.22;;;14.93;56.31
51496;BME280;37572;52.094;4.870;2023-05-25T00:28:23;102680.72;;;14.94;56.26
51496;BME280;37572;52.094;4.870;2023-05-25T00:30:49;102670.69;;;14.96;56.32
51496;BME280;37572;52.094;4.870;2023-05-25T00:33:15;102681.97;;;15.00;56.35
51496;BME280;37572;52.094;4.870;2023-05-25T00:35:43;102682.72;;;15.02;56.25
51496;BME280;37572;52.094;4.870;2023-05-25T00:38:16;102684.38;;;15.03;56.49
51496;BME280;37572;52.094;4.870;2023-05-25T00:40:42;102692.28;;;15.05;56.43
51496;BME280;37572;52.094;4.870;2023-05-25T00:43:11;102688.50;;;15.07;56.59
51496;BME280;37572;52.094;4.870;2023-05-25T00:45:37;102690.03;;;15.10;56.60
51496;BME280;37572;52.094;4.870;2023-05-25T00:48:03;102690.47;;;15.15;56.85
51496;BME280;37572;52.094;4.870;2023-05-25T00:53:01;102689.78;;;15.23;56.99
51496;BME280;37572;52.094;4.870;2023-05-25T00:55:28;102691.31;;;15.25;57.08
51496;BME280;37572;52.094;4.870;2023-05-25T00:57:59;102698.25;;;15.28;57.04
51496;BME280;37572;52.094;4.870;2023-05-25T01:00:25;102698.81;;;15.31;57.04
51496;BME280;37572;52.094;4.870;2023-05-25T01:02:51;102697.69;;;15.34;56.95
51496;BME280;37572;52.094;4.870;2023-05-25T01:05:22;102692.03;;;15.37;57.02
51496;BME280;37572;52.094;4.870;2023-05-25T01:07:50;102694.41;;;15.40;56.85
51496;BME280;37572;52.094;4.870;2023-05-25T01:10:18;102690.75;;;15.41;56.85
51496;BME280;37572;52.094;4.870;2023-05-25T01:12:48;102703.88;;;15.44;56.82
51496;BME280;37572;52.094;4.870;2023-05-25T01:15:15;102701.63;;;15.49;56.79
51496;BME280;37572;52.094;4.870;2023-05-25T01:17:41;102705.00;;;15.51;56.89
51496;BME280;37572;52.094;4.870;2023-05-25T01:20:06;102701.19;;;15.54;56.82
51496;BME280;37572;52.094;4.870;2023-05-25T01:22:39;102700.91;;;15.57;56.83
51496;BME280;37572;52.094;4.870;2023-05-25T01:25:24;102704.44;;;15.58;56.75
51496;BME280;37572;52.094;4.870;2023-05-25T01:27:57;102705.28;;;15.58;56.75
51496;BME280;37572;52.094;4.870;2023-05-25T01:30:25;102704.16;;;15.61;56.78
51496;BME280;37572;52.094;4.870;2023-05-25T01:32:52;102704.84;;;15.63;56.76
51496;BME280;37572;52.094;4.870;2023-05-25T01:35:18;102707.53;;;15.63;56.83
51496;BME280;37572;52.094;4.870;2023-05-25T01:37:45;102710.38;;;15.61;56.70
51496;BME280;37572;52.094;4.870;2023-05-25T01:40:14;102714.91;;;15.61;56.74
51496;BME280;37572;52.094;4.870;2023-05-25T01:42:40;102716.03;;;15.58;56.60
51496;BME280;37572;52.094;4.870;2023-05-25T01:45:06;102713.47;;;15.57;56.53
51496;BME280;37572;52.094;4.870;2023-05-25T01:47:52;102716.56;;;15.52;56.57
51496;BME280;37572;52.094;4.870;2023-05-25T01:53:24;102716.91;;;15.39;56.58
51496;BME280;37572;52.094;4.870;2023-05-25T01:55:52;102723.53;;;15.35;56.59
51496;BME280;37572;52.094;4.870;2023-05-25T01:58:19;102719.44;;;15.31;56.48
51496;BME280;37572;52.094;4.870;2023-05-25T02:00:48;102716.31;;;15.26;56.50
51496;BME280;37572;52.094;4.870;2023-05-25T02:03:15;102715.16;;;15.18;56.37
51496;BME280;37572;52.094;4.870;2023-05-25T02:05:40;102714.75;;;15.13;56.41
51496;BME280;37572;52.094;4.870;2023-05-25T02:08:06;102717.16;;;15.07;56.29
51496;BME280;37572;52.094;4.870;2023-05-25T02:10:31;102719.69;;;14.98;56.28
51496;BME280;37572;52.094;4.870;2023-05-25T02:12:57;102722.34;;;14.89;56.15
51496;BME280;37572;52.094;4.870;2023-05-25T02:15:22;102725.03;;;14.79;56.25
51496;BME280;37572;52.094;4.870;2023-05-25T02:17:48;102728.50;;;14.70;55.98
51496;BME280;37572;52.094;4.870;2023-05-25T02:20:13;102724.13;;;14.59;56.09
51496;BME280;37572;52.094;4.870;2023-05-25T02:22:38;102730.13;;;14.51;55.96
51496;BME280;37572;52.094;4.870;2023-05-25T02:25:04;102729.94;;;14.43;55.83
51496;BME280;37572;52.094;4.870;2023-05-25T02:27:29;102732.31;;;14.36;56.47
51496;BME280;37572;52.094;4.870;2023-05-25T02:29:55;102732.97;;;14.29;56.00
51496;BME280;37572;52.094;4.870;2023-05-25T02:32:20;102733.66;;;14.21;56.08
51496;BME280;37572;52.094;4.870;2023-05-25T02:34:46;102733.47;;;14.13;56.38
51496;BME280;37572;52.094;4.870;2023-05-25T02:37:12;102732.59;;;14.02;55.99
51496;BME280;37572;52.094;4.870;2023-05-25T02:39:38;102736.75;;;13.95;56.27
51496;BME280;37572;52.094;4.870;2023-05-25T02:42:03;102732.91;;;13.88;56.31
51496;BME280;37572;52.094;4.870;2023-05-25T02:44:30;102736.69;;;13.85;56.40
51496;BME280;37572;52.094;4.870;2023-05-25T02:46:55;102742.19;;;13.84;56.63
51496;BME280;37572;52.094;4.870;2023-05-25T02:49:20;102738.78;;;13.82;56.81
51496;BME280;37572;52.094;4.870;2023-05-25T02:51:46;102737.94;;;13.81;56.87
51496;BME280;37572;52.094;4.870;2023-05-25T02:54:11;102740.63;;;13.81;56.98
51496;BME280;37572;52.094;4.870;2023-05-25T02:56:36;102744.13;;;13.82;57.21
51496;BME280;37572;52.094;4.870;2023-05-25T02:59:01;102745.84;;;13.83;57.24
51496;BME280;37572;52.094;4.870;2023-05-25T03:01:27;102744.59;;;13.87;57.14
51496;BME280;37572;52.094;4.870;2023-05-25T03:03:55;102748.00;;;13.89;57.32
51496;BME280;37572;52.094;4.870;2023-05-25T03:06:20;102748.00;;;13.89;57.18
51496;BME280;37572;52.094;4.870;2023-05-25T03:08:47;102745.47;;;13.87;57.24
51496;BME280;37572;52.094;4.870;2023-05-25T03:11:12;102746.44;;;13.86;57.31
51496;BME280;37572;52.094;4.870;2023-05-25T03:13:37;102744.88;;;13.84;57.16
51496;BME280;37572;52.094;4.870;2023-05-25T03:16:03;102754.25;;;13.78;57.26
51496;BME280;37572;52.094;4.870;2023-05-25T03:18:28;102743.34;;;13.70;57.18
51496;BME280;37572;52.094;4.870;2023-05-25T03:20:53;102748.38;;;13.63;56.96
51496;BME280;37572;52.094;4.870;2023-05-25T03:23:19;102748.03;;;13.57;57.12
51496;BME280;37572;52.094;4.870;2023-05-25T03:25:44;102747.72;;;13.50;56.84
51496;BME280;37572;52.094;4.870;2023-05-25T03:28:10;102750.75;;;13.45;56.94
51496;BME280;37572;52.094;4.870;2023-05-25T03:30:35;102752.00;;;13.41;56.92
51496;BME280;37572;52.094;4.870;2023-05-25T03:33:01;102753.97;;;13.39;57.28
51496;BME280;37572;52.094;4.870;2023-05-25T03:35:26;102754.09;;;13.38;57.44
51496;BME280;37572;52.094;4.870;2023-05-25T03:37:51;102748.03;;;13.36;57.48
51496;BME280;37572;52.094;4.870;2023-05-25T03:40:17;102746.31;;;13.35;57.58
51496;BME280;37572;52.094;4.870;2023-05-25T03:42:42;102743.66;;;13.35;57.73
51496;BME280;37572;52.094;4.870;2023-05-25T03:45:08;102744.34;;;13.37;57.88
51496;BME280;37572;52.094;4.870;2023-05-25T03:47:35;102737.03;;;13.39;57.91
51496;BME280;37572;52.094;4.870;2023-05-25T03:50:01;102746.53;;;13.43;57.96
51496;BME280;37572;52.094;4.870;2023-05-25T03:52:27;102747.97;;;13.47;57.77
51496;BME280;37572;52.094;4.870;2023-05-25T03:54:52;102749.28;;;13.53;57.45
51496;BME280;37572;52.094;4.870;2023-05-25T03:57:18;102755.09;;;13.58;58.00
51496;BME280;37572;52.094;4.870;2023-05-25T03:59:43;102758.38;;;13.61;58.06
51496;BME280;37572;52.094;4.870;2023-05-25T04:02:08;102757.41;;;13.62;58.06
51496;BME280;37572;52.094;4.870;2023-05-25T04:04:33;102766.16;;;13.64;57.99
51496;BME280;37572;52.094;4.870;2023-05-25T04:06:59;102768.69;;;13.66;58.14
51496;BME280;37572;52.094;4.870;2023-05-25T04:09:24;102769.53;;;13.66;58.10
51496;BME280;37572;52.094;4.870;2023-05-25T04:11:50;102772.22;;;13.66;57.69
51496;BME280;37572;52.094;4.870;2023-05-25T04:14:15;102770.66;;;13.64;57.72
51496;BME280;37572;52.094;4.870;2023-05-25T04:16:40;102776.84;;;13.64;57.92
51496;BME280;37572;52.094;4.870;2023-05-25T04:19:06;102770.50;;;13.65;57.80
51496;BME280;37572;52.094;4.870;2023-05-25T04:21:31;102771.13;;;13.69;57.94
51496;BME280;37572;52.094;4.870;2023-05-25T04:23:57;102776.94;;;13.74;57.94
51496;BME280;37572;52.094;4.870;2023-05-25T04:26:22;102775.69;;;13.78;58.01
51496;BME280;37572;52.094;4.870;2023-05-25T04:28:50;102781.38;;;13.85;57.90
51496;BME280;37572;52.094;4.870;2023-05-25T04:31:19;102783.53;;;13.91;57.84
51496;BME280;37572;52.094;4.870;2023-05-25T04:33:44;102792.75;;;13.98;57.78
51496;BME280;37572;52.094;4.870;2023-05-25T04:36:09;102788.28;;;14.09;57.78
51496;BME280;37572;52.094;4.870;2023-05-25T04:38:35;102779.47;;;14.18;57.83
51496;BME280;37572;52.094;4.870;2023-05-25T04:41:00;102788.41;;;14.28;57.97
51496;BME280;37572;52.094;4.870;2023-05-25T04:43:29;102786.50;;;14.40;57.71
51496;BME280;37572;52.094;4.870;2023-05-25T04:45:55;102795.16;;;14.53;57.82
51496;BME280;37572;52.094;4.870;2023-05-25T04:48:21;102789.63;;;14.66;57.81
51496;BME280;37572;52.094;4.870;2023-05-25T04:50:48;102798.00;;;14.83;57.86
51496;BME280;37572;52.094;4.870;2023-05-25T04:53:14;102798.34;;;14.99;57.71
51496;BME280;37572;52.094;4.870;2023-05-25T04:55:39;102804.03;;;15.15;57.77
51496;BME280;37572;52.094;4.870;2023-05-25T04:58:04;102808.84;;;15.31;57.56
51496;BME280;37572;52.094;4.870;2023-05-25T05:00:30;102809.44;;;15.45;57.40
51496;BME280;37572;52.094;4.870;2023-05-25T05:02:56;102808.31;;;15.57;57.29
51496;BME280;37572;52.094;4.870;2023-05-25T05:05:23;102815.25;;;15.69;57.25
51496;BME280;37572;52.094;4.870;2023-05-25T05:07:48;102818.66;;;15.81;57.25
51496;BME280;37572;52.094;4.870;2023-05-25T05:10:13;102819.50;;;15.91;56.54
51496;BME280;37572;52.094;4.870;2023-05-25T05:12:39;102820.31;;;16.02;56.79
51496;BME280;37572;52.094;4.870;2023-05-25T05:15:04;102812.81;;;16.15;56.77
51496;BME280;37572;52.094;4.870;2023-05-25T05:17:30;102822.13;;;16.31;56.53
51496;BME280;37572;52.094;4.870;2023-05-25T05:19:55;102812.59;;;16.46;56.41
51496;BME280;37572;52.094;4.870;2023-05-25T05:22:21;102816.09;;;16.56;56.12
51496;BME280;37572;52.094;4.870;2023-05-25T05:24:46;102820.44;;;16.67;55.98
51496;BME280;37572;52.094;4.870;2023-05-25T05:27:12;102813.59;;;16.82;56.28
51496;BME280;37572;52.094;4.870;2023-05-25T05:29:40;102813.28;;;16.95;55.79
51496;BME280;37572;52.094;4.870;2023-05-25T05:32:06;102818.56;;;17.05;55.67
51496;BME280;37572;52.094;4.870;2023-05-25T05:34:32;102821.75;;;17.18;55.69
51496;BME280;37572;52.094;4.870;2023-05-25T05:36:58;102825.78;;;17.32;55.43
51496;BME280;37572;52.094;4.870;2023-05-25T05:39:25;102831.50;;;17.47;54.92
51496;BME280;37572;52.094;4.870;2023-05-25T05:41:51;102835.34;;;17.63;54.43
51496;BME280;37572;52.094;4.870;2023-05-25T05:44:16;102832.28;;;17.75;54.50
51496;BME280;37572;52.094;4.870;2023-05-25T05:46:41;102836.56;;;17.86;53.89
51496;BME280;37572;52.094;4.870;2023-05-25T05:49:07;102835.53;;;17.97;53.62
51496;BME280;37572;52.094;4.870;2023-05-25T05:51:32;102835.09;;;18.10;53.92
51496;BME280;37572;52.094;4.870;2023-05-25T05:53:57;102842.78;;;18.23;53.01
51496;BME280;37572;52.094;4.870;2023-05-25T05:56:23;102846.22;;;18.33;53.14
51496;BME280;37572;52.094;4.870;2023-05-25T05:58:48;102848.28;;;18.39;52.84
51496;BME280;37572;52.094;4.870;2023-05-25T06:01:15;102851.34;;;18.44;52.20
51496;BME280;37572;52.094;4.870;2023-05-25T06:03:42;102857.78;;;18.52;51.46
51496;BME280;37572;52.094;4.870;2023-05-25T06:06:07;102861.06;;;18.63;51.65
51496;BME280;37572;52.094;4.870;2023-05-25T06:08:33;102867.56;;;18.79;51.73
51496;BME280;37572;52.094;4.870;2023-05-25T06:10:58;102866.81;;;18.95;51.65
51496;BME280;37572;52.094;4.870;2023-05-25T06:13:23;102865.38;;;19.09;51.13
51496;BME280;37572;52.094;4.870;2023-05-25T06:15:48;102872.47;;;19.18;50.77
51496;BME280;37572;52.094;4.870;2023-05-25T06:18:14;102871.50;;;19.27;50.29
51496;BME280;37572;52.094;4.870;2023-05-25T06:20:40;102877.44;;;19.39;50.26
51496;BME280;37572;52.094;4.870;2023-05-25T06:23:05;102872.56;;;19.51;49.82
51496;BME280;37572;52.094;4.870;2023-05-25T06:25:31;102871.72;;;19.67;49.65
51496;BME280;37572;52.094;4.870;2023-05-25T06:27:56;102871.44;;;19.86;49.86
51496;BME280;37572;52.094;4.870;2023-05-25T06:30:22;102869.94;;;20.08;49.41
51496;BME280;37572;52.094;4.870;2023-05-25T06:32:47;102871.63;;;20.26;48.91
51496;BME280;37572;52.094;4.870;2023-05-25T06:35:13;102869.38;;;20.46;48.75
51496;BME280;37572;52.094;4.870;2023-05-25T06:37:47;102876.50;;;20.63;48.24
51496;BME280;37572;52.094;4.870;2023-05-25T06:40:16;102875.41;;;20.81;47.97
51496;BME280;37572;52.094;4.870;2023-05-25T06:42:42;102873.31;;;20.99;47.91
51496;BME280;37572;52.094;4.870;2023-05-25T06:45:08;102871.19;;;21.18;46.99
51496;BME280;37572;52.094;4.870;2023-05-25T06:47:34;102875.81;;;21.40;47.03
51496;BME280;37572;52.094;4.870;2023-05-25T06:50:00;102879.25;;;21.66;46.45
51496;BME280;37572;52.094;4.870;2023-05-25T06:52:25;102879.41;;;21.87;46.18
51496;BME280;37572;52.094;4.870;2023-05-25T06:54:54;102875.97;;;21.93;44.93
51496;BME280;37572;52.094;4.870;2023-05-25T06:57:21;102877.53;;;21.88;45.32
51496;BME280;37572;52.094;4.870;2023-05-25T06:59:48;102875.25;;;21.76;44.54
51496;BME280;37572;52.094;4.870;2023-05-25T07:02:13;102882.66;;;21.59;45.02
51496;BME280;37572;52.094;4.870;2023-05-25T07:04:38;102884.59;;;21.42;45.17
51496;BME280;37572;52.094;4.870;2023-05-25T07:07:05;102892.56;;;21.44;44.90
51496;BME280;37572;52.094;4.870;2023-05-25T07:09:31;102887.66;;;21.39;44.60
51496;BME280;37572;52.094;4.870;2023-05-25T07:11:56;102898.69;;;21.38;45.03
51496;BME280;37572;52.094;4.870;2023-05-25T07:14:22;102911.22;;;21.39;44.70
51496;BME280;37572;52.094;4.870;2023-05-25T07:16:47;102901.25;;;21.31;44.24
51496;BME280;37572;52.094;4.870;2023-05-25T07:19:12;102903.34;;;21.21;44.39
51496;BME280;37572;52.094;4.870;2023-05-25T07:21:38;102915.03;;;21.13;44.71
51496;BME280;37572;52.094;4.870;2023-05-25T07:24:03;102917.47;;;21.00;45.02
51496;BME280;37572;52.094;4.870;2023-05-25T07:26:30;102913.59;;;20.94;45.14
51496;BME280;37572;52.094;4.870;2023-05-25T07:28:56;102914.94;;;20.98;45.11
51496;BME280;37572;52.094;4.870;2023-05-25T07:31:21;102916.78;;;21.06;45.46
51496;BME280;37572;52.094;4.870;2023-05-25T07:33:47;102919.03;;;21.34;45.43
51496;BME280;37572;52.094;4.870;2023-05-25T07:36:12;102918.16;;;21.73;45.00
51496;BME280;37572;52.094;4.870;2023-05-25T07:38:37;102908.06;;;22.05;43.76
51496;BME280;37572;52.094;4.870;2023-05-25T07:41:03;102921.28;;;22.31;43.03
51496;BME280;37572;52.094;4.870;2023-05-25T07:43:28;102913.28;;;22.52;42.62
51496;BME280;37572;52.094;4.870;2023-05-25T07:45:54;102910.94;;;22.64;42.76
51496;BME280;37572;52.094;4.870;2023-05-25T07:48:19;102919.66;;;22.75;42.17
51496;BME280;37572;52.094;4.870;2023-05-25T07:50:44;102917.63;;;22.77;41.48
51496;BME280;37572;52.094;4.870;2023-05-25T07:53:10;102910.31;;;22.77;41.24
51496;BME280;37572;52.094;4.870;2023-05-25T07:55:35;102915.91;;;22.90;42.01
51496;BME280;37572;52.094;4.870;2023-05-25T07:58:00;102914.34;;;23.11;41.46
51496;BME280;37572;52.094;4.870;2023-05-25T08:00:26;102923.41;;;23.33;41.06
51496;BME280;37572;52.094;4.870;2023-05-25T08:02:51;102924.66;;;23.52;40.53
51496;BME280;37572;52.094;4.870;2023-05-25T08:05:17;102927.25;;;23.60;40.18
51496;BME280;37572;52.094;4.870;2023-05-25T08:07:43;102926.34;;;23.53;40.34
51496;BME280;37572;52.094;4.870;2023-05-25T08:10:09;102936.03;;;23.26;39.57
51496;BME280;37572;52.094;4.870;2023-05-25T08:12:34;102938.94;;;22.95;40.30
51496;BME280;37572;52.094;4.870;2023-05-25T08:15:00;102945.94;;;22.59;40.81
51496;BME280;37572;52.094;4.870;2023-05-25T08:17:25;102939.13;;;22.25;41.61
51496;BME280;37572;52.094;4.870;2023-05-25T08:19:52;102951.06;;;21.93;41.73
51496;BME280;37572;52.094;4.870;2023-05-25T08:22:18;102944.16;;;21.59;41.20
51496;BME280;37572;52.094;4.870;2023-05-25T08:24:43;102951.06;;;21.30;42.22
51496;BME280;37572;52.094;4.870;2023-05-25T08:27:08;102954.53;;;21.07;42.86
51496;BME280;37572;52.094;4.870;2023-05-25T08:29:34;102958.97;;;20.92;43.48
51496;BME280;37572;52.094;4.870;2023-05-25T08:31:59;102956.81;;;20.79;44.01
51496;BME280;37572;52.094;4.870;2023-05-25T08:34:24;102969.19;;;20.65;43.92
51496;BME280;37572;52.094;4.870;2023-05-25T08:36:50;102964.91;;;20.55;44.88
51496;BME280;37572;52.094;4.870;2023-05-25T08:39:16;102970.34;;;20.46;44.90
51496;BME280;37572;52.094;4.870;2023-05-25T08:41:44;102969.66;;;20.36;45.06
51496;BME280;37572;52.094;4.870;2023-05-25T08:44:10;102972.38;;;20.28;45.18
51496;BME280;37572;52.094;4.870;2023-05-25T08:46:35;102972.19;;;20.21;45.91
51496;BME280;37572;52.094;4.870;2023-05-25T08:49:06;102970.69;;;20.10;46.03
51496;BME280;37572;52.094;4.870;2023-05-25T08:51:36;102973.03;;;20.05;46.17
51496;BME280;37572;52.094;4.870;2023-05-25T08:54:11;102973.22;;;20.04;46.32
51496;BME280;37572;52.094;4.870;2023-05-25T08:56:48;102975.75;;;20.05;46.31
51496;BME280;37572;52.094;4.870;2023-05-25T08:59:25;102977.59;;;20.05;45.77
51496;BME280;37572;52.094;4.870;2023-05-25T09:01:57;102959.38;;;20.07;45.77
51496;BME280;37572;52.094;4.870;2023-05-25T09:04:25;102959.16;;;20.17;45.84
51496;BME280;37572;52.094;4.870;2023-05-25T09:06:51;102966.63;;;20.39;46.06
51496;BME280;37572;52.094;4.870;2023-05-25T09:09:17;102965.81;;;20.63;45.90
51496;BME280;37572;52.094;4.870;2023-05-25T09:11:43;102971.53;;;20.77;45.52
51496;BME280;37572;52.094;4.870;2023-05-25T09:14:10;102966.44;;;20.82;45.37
51496;BME280;37572;52.094;4.870;2023-05-25T09:16:38;102972.69;;;20.82;45.13
51496;BME280;37572;52.094;4.870;2023-05-25T09:19:04;102975.25;;;20.76;44.86
51496;BME280;37572;52.094;4.870;2023-05-25T09:21:29;102968.16;;;20.66;44.74
51496;BME280;37572;52.094;4.870;2023-05-25T09:23:55;102975.56;;;20.56;45.09
51496;BME280;37572;52.094;4.870;2023-05-25T09:26:21;102971.03;;;20.48;45.09
51496;BME280;37572;52.094;4.870;2023-05-25T09:28:47;102972.38;;;20.44;44.97
51496;BME280;37572;52.094;4.870;2023-05-25T09:31:13;102955.31;;;20.44;44.79
51496;BME280;37572;52.094;4.870;2023-05-25T09:33:39;102969.66;;;20.44;44.19
51496;BME280;37572;52.094;4.870;2023-05-25T09:36:05;102969.50;;;20.46;43.67
51496;BME280;37572;52.094;4.870;2023-05-25T09:38:31;102971.53;;;20.44;43.71
51496;BME280;37572;52.094;4.870;2023-05-25T09:40:57;102964.44;;;20.43;43.71
51496;BME280;37572;52.094;4.870;2023-05-25T09:43:22;102965.09;;;20.45;43.61
51496;BME280;37572;52.094;4.870;2023-05-25T09:45:48;102964.25;;;20.44;43.83
51496;BME280;37572;52.094;4.870;2023-05-25T09:48:15;102972.38;;;20.52;44.25
51496;BME280;37572;52.094;4.870;2023-05-25T09:50:42;102965.09;;;20.69;44.48
51496;BME280;37572;52.094;4.870;2023-05-25T09:53:07;102971.69;;;20.83;44.00
51496;BME280;37572;52.094;4.870;2023-05-25T09:55:32;102968.94;;;20.92;44.00
51496;BME280;37572;52.094;4.870;2023-05-25T09:57:58;102973.19;;;20.94;43.73
51496;BME280;37572;52.094;4.870;2023-05-25T10:00:25;102972.00;;;20.97;43.41
51496;BME280;37572;52.094;4.870;2023-05-25T10:02:51;102976.03;;;21.01;43.22
51496;BME280;37572;52.094;4.870;2023-05-25T10:05:16;102968.06;;;21.07;43.08
51496;BME280;37572;52.094;4.870;2023-05-25T10:07:44;102973.13;;;21.11;43.00
51496;BME280;37572;52.094;4.870;2023-05-25T10:10:14;102969.56;;;21.18;43.04
51496;BME280;37572;52.094;4.870;2023-05-25T10:12:40;102972.34;;;21.33;42.76
51496;BME280;37572;52.094;4.870;2023-05-25T10:15:07;102973.84;;;21.44;42.67
51496;BME280;37572;52.094;4.870;2023-05-25T10:17:34;102977.41;;;21.53;42.61
51496;BME280;37572;52.094;4.870;2023-05-25T10:20:04;102972.59;;;21.63;42.61
51496;BME280;37572;52.094;4.870;2023-05-25T10:22:35;102968.66;;;21.74;42.50
51496;BME280;37572;52.094;4.870;2023-05-25T10:25:09;102974.38;;;21.79;41.60
51496;BME280;37572;52.094;4.870;2023-05-25T10:30:19;102980.34;;;21.74;42.44
51496;BME280;37572;52.094;4.870;2023-05-25T10:32:45;102977.09;;;21.79;42.49
51496;BME280;37572;52.094;4.870;2023-05-25T10:35:12;102970.97;;;21.85;42.16
51496;BME280;37572;52.094;4.870;2023-05-25T10:37:38;102979.75;;;21.87;41.63
51496;BME280;37572;52.094;4.870;2023-05-25T10:40:05;102980.09;;;21.84;41.97
51496;BME280;37572;52.094;4.870;2023-05-25T10:42:33;102980.47;;;21.81;41.75
51496;BME280;37572;52.094;4.870;2023-05-25T10:45:02;102985.09;;;21.72;41.94
51496;BME280;37572;52.094;4.870;2023-05-25T10:47:29;102983.63;;;21.61;42.58
51496;BME280;37572;52.094;4.870;2023-05-25T10:49:56;102993.00;;;21.51;42.82
51496;BME280;37572;52.094;4.870;2023-05-25T10:52:29;102991.84;;;21.37;42.77
51496;BME280;37572;52.094;4.870;2023-05-25T10:55:01;102990.69;;;21.23;42.70
51496;BME280;37572;52.094;4.870;2023-05-25T10:57:28;102992.75;;;21.13;42.94
51496;BME280;37572;52.094;4.870;2023-05-25T11:00:00;102984.66;;;21.04;43.41
51496;BME280;37572;52.094;4.870;2023-05-25T11:02:29;102995.84;;;21.01;43.83
51496;BME280;37572;52.094;4.870;2023-05-25T11:05:29;102993.81;;;21.03;44.12
51496;BME280;37572;52.094;4.870;2023-05-25T11:07:58;102986.19;;;21.07;43.67
51496;BME280;37572;52.094;4.870;2023-05-25T11:13:33;102989.84;;;21.22;42.99
51496;BME280;37572;52.094;4.870;2023-05-25T11:18:48;102983.00;;;21.43;43.11
51496;BME280;37572;52.094;4.870;2023-05-25T11:21:15;102978.91;;;21.55;42.87
51496;BME280;37572;52.094;4.870;2023-05-25T11:26:21;102985.84;;;21.58;41.61
51496;BME280;37572;52.094;4.870;2023-05-25T11:28:47;102979.59;;;21.57;41.97
51496;BME280;37572;52.094;4.870;2023-05-25T11:31:13;102982.47;;;21.56;42.42
51496;BME280;37572;52.094;4.870;2023-05-25T11:33:39;102986.91;;;21.49;42.32
51496;BME280;37572;52.094;4.870;2023-05-25T11:36:06;102978.25;;;21.45;42.22
51496;BME280;37572;52.094;4.870;2023-05-25T11:38:32;102977.41;;;21.44;42.36
51496;BME280;37572;52.094;4.870;2023-05-25T11:41:02;102974.50;;;21.54;42.42
51496;BME280;37572;52.094;4.870;2023-05-25T11:43:28;102969.03;;;21.62;41.93
51496;BME280;37572;52.094;4.870;2023-05-25T11:45:55;102966.81;;;21.66;41.63
51496;BME280;37572;52.094;4.870;2023-05-25T11:48:20;102963.94;;;21.68;41.71
51496;BME280;37572;52.094;4.870;2023-05-25T11:50:46;102964.59;;;21.70;41.67
51496;BME280;37572;52.094;4.870;2023-05-25T11:53:11;102965.47;;;21.70;40.96
51496;BME280;37572;52.094;4.870;2023-05-25T11:55:37;102968.16;;;21.70;41.09
51496;BME280;37572;52.094;4.870;2023-05-25T11:58:05;102959.34;;;21.68;40.40
51496;BME280;37572;52.094;4.870;2023-05-25T12:00:30;102958.34;;;21.69;39.95
51496;BME280;37572;52.094;4.870;2023-05-25T12:02:56;102958.81;;;21.73;40.29
51496;BME280;37572;52.094;4.870;2023-05-25T12:05:22;102967.44;;;21.76;40.21
51496;BME280;37572;52.094;4.870;2023-05-25T12:07:48;102959.59;;;21.81;40.09
51496;BME280;37572;52.094;4.870;2023-05-25T12:10:15;102956.84;;;21.90;40.19
51496;BME280;37572;52.094;4.870;2023-05-25T12:12:45;102959.63;;;22.05;40.71
51496;BME280;37572;52.094;4.870;2023-05-25T12:15:13;102957.81;;;22.20;40.70
51496;BME280;37572;52.094;4.870;2023-05-25T12:17:40;102956.84;;;22.36;40.80
51496;BME280;37572;52.094;4.870;2023-05-25T12:20:08;102961.19;;;22.45;40.82
51496;BME280;37572;52.094;4.870;2023-05-25T12:22:34;102967.47;;;22.46;40.74
51496;BME280;37572;52.094;4.870;2023-05-25T12:24:59;102962.75;;;22.40;41.01
51496;BME280;37572;52.094;4.870;2023-05-25T12:27:25;102965.53;;;22.31;40.72
51496;BME280;37572;52.094;4.870;2023-05-25T12:29:50;102966.44;;;22.24;40.56
51496;BME280;37572;52.094;4.870;2023-05-25T12:32:17;102957.44;;;22.23;40.60
51496;BME280;37572;52.094;4.870;2023-05-25T12:34:42;102963.38;;;22.27;40.29
51496;BME280;37572;52.094;4.870;2023-05-25T12:37:19;102964.06;;;22.29;40.79
51496;BME280;37572;52.094;4.870;2023-05-25T12:39:44;102967.06;;;22.34;40.10
51496;BME280;37572;52.094;4.870;2023-05-25T12:42:14;102963.97;;;22.37;40.38
51496;BME280;37572;52.094;4.870;2023-05-25T12:44:40;102963.97;;;22.37;40.03
51496;BME280;37572;52.094;4.870;2023-05-25T12:49:41;102972.41;;;22.42;40.36
51496;BME280;37572;52.094;4.870;2023-05-25T12:52:08;102965.19;;;22.34;39.03
51496;BME280;37572;52.094;4.870;2023-05-25T12:54:36;102954.53;;;22.25;39.59
51496;BME280;37572;52.094;4.870;2023-05-25T12:57:03;102969.03;;;22.17;39.80
51496;BME280;37572;52.094;4.870;2023-05-25T12:59:30;102963.50;;;22.10;39.67
51496;BME280;37572;52.094;4.870;2023-05-25T13:01:56;102964.88;;;22.06;39.63
51496;BME280;37572;52.094;4.870;2023-05-25T13:04:22;102955.59;;;22.01;40.22
51496;BME280;37572;52.094;4.870;2023-05-25T13:06:48;102962.91;;;22.00;40.06